Time;durP1;ratioP1;P1;durP2;ratioP2;P2;SDS_P1;SDS_P2;PMS_P1;PMS_P2;Temp;Humidity;BMP_temperature;BMP_pressure;BME280_temperature;BME280_humidity;BME280_pressure;Samples;Min_cycle;Max_cycle;Signal;HPM_P1;HPM_P2
2020/12/30 00:00:36;;;;;;;24.57;10.75;;;;;;;7.17;87.00;100352.47;1757021;80;21219;-74
2020/12/30 00:03:04;;;;;;;21.00;10.53;;;;;;;7.14;86.92;100357.75;1753558;80;21193;-73
2020/12/30 00:05:31;;;;;;;25.00;10.82;;;;;;;7.12;86.92;100357.18;1753112;80;22253;-75
2020/12/30 00:08:00;;;;;;;20.65;11.18;;;;;;;7.14;86.93;100368.38;1750115;81;21209;-75
2020/12/30 00:10:27;;;;;;;23.47;11.65;;;;;;;7.11;86.82;100378.15;1758907;81;21517;-74
2020/12/30 00:12:55;;;;;;;18.92;12.28;;;;;;;7.04;86.76;100374.31;1758885;80;21192;-74
2020/12/30 00:15:23;;;;;;;18.98;12.58;;;;;;;6.91;86.54;100373.77;1754914;80;21306;-74
2020/12/30 00:17:50;;;;;;;21.12;15.08;;;;;;;6.71;86.40;100375.51;1757675;80;21224;-75
2020/12/30 00:20:20;;;;;;;22.17;15.18;;;;;;;6.51;86.37;100380.69;1753975;81;21235;-75
2020/12/30 00:22:48;;;;;;;21.17;15.13;;;;;;;6.34;86.38;100376.63;1758733;80;21751;-74
2020/12/30 00:25:16;;;;;;;22.17;15.38;;;;;;;6.20;86.42;100387.73;1756805;81;21559;-74
2020/12/30 00:27:45;;;;;;;21.57;14.47;;;;;;;6.09;86.52;100392.81;1757700;80;21191;-75
2020/12/30 00:30:15;;;;;;;23.62;16.17;;;;;;;6.03;86.56;100390.28;1751226;80;21385;-75
2020/12/30 00:32:45;;;;;;;27.67;17.40;;;;;;;5.93;86.62;100399.33;1751818;80;21215;-74
2020/12/30 00:35:14;;;;;;;24.40;16.60;;;;;;;5.81;86.74;100392.13;1758908;80;21232;-75
2020/12/30 00:37:42;;;;;;;26.62;17.42;;;;;;;5.73;86.85;100399.11;1756713;81;21197;-74
2020/12/30 00:40:11;;;;;;;25.15;17.32;;;;;;;5.67;86.96;100397.36;1759277;80;21192;-74
2020/12/30 00:42:42;;;;;;;22.90;16.05;;;;;;;5.63;87.06;100394.36;1758728;80;21455;-74
2020/12/30 00:45:10;;;;;;;25.75;17.07;;;;;;;5.65;87.17;100399.42;1750002;80;21806;-74
2020/12/30 00:47:38;;;;;;;26.23;17.60;;;;;;;5.61;87.21;100394.30;1757053;81;21168;-74
2020/12/30 00:50:07;;;;;;;27.27;17.70;;;;;;;5.58;87.30;100398.72;1759425;81;21489;-75
2020/12/30 00:52:36;;;;;;;24.20;16.75;;;;;;;5.55;87.34;100401.83;1758825;79;21221;-73
2020/12/30 00:55:05;;;;;;;24.60;17.17;;;;;;;5.56;87.43;100400.78;1745948;81;21754;-73
2020/12/30 00:57:45;;;;;;;27.90;19.07;;;;;;;5.58;87.47;100391.58;1803059;78;21978;-74
2020/12/30 01:00:12;;;;;;;26.82;18.17;;;;;;;5.51;87.52;100399.34;1780468;80;22091;-73
2020/12/30 01:03:09;;;;;;;26.83;17.50;;;;;;;5.56;87.63;100395.48;1798458;78;23537;-73
2020/12/30 01:05:37;;;;;;;26.15;18.75;;;;;;;5.52;87.60;100391.16;1772734;80;21172;-73
2020/12/30 01:08:05;;;;;;;27.52;17.52;;;;;;;5.50;87.65;100389.27;1786237;78;22182;-73
2020/12/30 01:10:33;;;;;;;30.70;19.42;;;;;;;5.50;87.72;100395.09;1769096;80;21200;-73
2020/12/30 01:13:01;;;;;;;31.37;19.55;;;;;;;5.51;87.75;100405.97;1791937;79;21583;-73
2020/12/30 01:15:29;;;;;;;25.50;18.00;;;;;;;5.52;87.83;100407.05;1772566;79;21204;-73
2020/12/30 01:17:56;;;;;;;27.85;19.30;;;;;;;5.58;87.88;100402.70;1764534;79;21441;-73
2020/12/30 01:20:24;;;;;;;27.02;19.80;;;;;;;5.61;87.85;100391.65;1765751;79;21430;-75
2020/12/30 01:22:52;;;;;;;28.38;19.95;;;;;;;5.62;87.87;100392.73;1765179;79;21255;-73
2020/12/30 01:25:19;;;;;;;31.17;19.02;;;;;;;5.62;87.87;100399.87;1764905;79;21128;-74
2020/12/30 01:27:47;;;;;;;25.65;17.42;;;;;;;5.61;87.89;100400.40;1763722;79;21172;-72
2020/12/30 01:30:15;;;;;;;28.23;18.73;;;;;;;5.65;87.93;100395.45;1763761;79;21682;-73
2020/12/30 01:32:44;;;;;;;28.57;18.57;;;;;;;5.65;87.93;100390.15;1765402;81;21394;-73
2020/12/30 01:35:12;;;;;;;26.33;17.70;;;;;;;5.64;87.97;100389.87;1777942;79;21655;-74
2020/12/30 01:37:40;;;;;;;25.52;17.80;;;;;;;5.63;87.98;100386.94;1771569;79;21597;-74
2020/12/30 01:40:09;;;;;;;28.43;18.93;;;;;;;5.62;87.98;100386.63;1642189;79;10000006;-72
2020/12/30 01:42:44;;;;;;;27.07;18.77;;;;;;;5.59;87.96;100386.59;1766087;79;21422;-74
2020/12/30 01:45:13;;;;;;;29.45;18.92;;;;;;;5.56;87.99;100371.15;1764331;81;21195;-73
2020/12/30 01:47:43;;;;;;;26.35;17.85;;;;;;;5.57;88.05;100374.59;1760852;79;21155;-73
2020/12/30 01:50:14;;;;;;;23.65;17.00;;;;;;;5.54;88.05;100367.11;1766834;79;21123;-73
2020/12/30 01:52:41;;;;;;;24.05;16.87;;;;;;;5.48;88.08;100364.84;1768797;79;21627;-72
2020/12/30 01:55:11;;;;;;;27.17;19.17;;;;;;;5.43;88.11;100367.38;1737717;82;21394;-72
2020/12/30 01:57:39;;;;;;;26.93;18.32;;;;;;;5.39;88.20;100368.33;1754908;79;21160;-72
2020/12/30 02:00:07;;;;;;;25.85;19.82;;;;;;;5.36;88.25;100379.89;1767786;79;21073;-73
2020/12/30 02:02:38;;;;;;;24.25;18.32;;;;;;;5.34;88.35;100373.52;1767640;79;21120;-73
2020/12/30 02:05:07;;;;;;;23.12;17.05;;;;;;;5.36;88.40;100376.75;1768237;79;21239;-73
2020/12/30 02:07:35;;;;;;;25.50;19.35;;;;;;;5.39;88.43;100374.95;1767095;80;22753;-74
2020/12/30 02:10:03;;;;;;;23.57;18.62;;;;;;;5.36;88.48;100369.30;1772249;79;21112;-73
2020/12/30 02:12:31;;;;;;;20.70;16.45;;;;;;;5.36;88.54;100363.52;1767886;79;21207;-74
2020/12/30 02:14:59;;;;;;;24.35;17.75;;;;;;;5.35;88.61;100361.88;1767670;79;21477;-73
2020/12/30 02:17:27;;;;;;;21.93;16.90;;;;;;;5.39;88.68;100370.17;1765994;79;21132;-74
2020/12/30 02:19:54;;;;;;;21.52;16.87;;;;;;;5.40;88.68;100371.28;1763959;79;21608;-73
2020/12/30 02:22:22;;;;;;;20.15;15.32;;;;;;;5.41;88.70;100372.09;1767487;79;21674;-75
2020/12/30 02:24:52;;;;;;;23.70;18.05;;;;;;;5.38;88.69;100369.37;1762410;79;21188;-74
2020/12/30 02:27:20;;;;;;;20.12;16.02;;;;;;;5.34;88.72;100368.73;1773948;79;21219;-73
2020/12/30 02:29:47;;;;;;;19.10;14.63;;;;;;;5.36;88.78;100375.43;1761926;79;21187;-73
2020/12/30 02:32:15;;;;;;;21.25;15.83;;;;;;;5.39;88.78;100365.67;1767432;79;21809;-73
2020/12/30 02:34:43;;;;;;;23.87;18.52;;;;;;;5.37;88.78;100359.82;1764292;79;21240;-73
2020/12/30 02:37:10;;;;;;;23.65;17.57;;;;;;;5.38;88.77;100363.27;1789979;79;21180;-73
2020/12/30 02:39:39;;;;;;;22.90;18.05;;;;;;;5.37;88.79;100370.41;1773247;79;21152;-74
2020/12/30 02:42:07;;;;;;;20.82;16.73;;;;;;;5.38;88.77;100360.10;1769984;81;21103;-74
2020/12/30 02:44:35;;;;;;;24.02;17.57;;;;;;;5.38;88.73;100368.56;1767983;79;21327;-74
2020/12/30 02:47:03;;;;;;;21.27;16.40;;;;;;;5.37;88.74;100369.09;1769363;80;21136;-73
2020/12/30 02:49:30;;;;;;;23.52;18.85;;;;;;;5.38;88.74;100370.69;1765906;79;21167;-74
2020/12/30 02:51:58;;;;;;;20.27;16.02;;;;;;;5.37;88.74;100372.27;1769011;79;21060;-74
2020/12/30 02:54:25;;;;;;;16.37;13.48;;;;;;;5.33;88.72;100363.97;1770283;79;21180;-73
2020/12/30 02:56:53;;;;;;;19.52;15.10;;;;;;;5.27;88.67;100367.52;1768891;79;21800;-74
2020/12/30 02:59:22;;;;;;;19.73;15.55;;;;;;;5.22;88.69;100362.08;1767726;79;21187;-74
2020/12/30 03:01:49;;;;;;;21.15;17.23;;;;;;;5.16;88.74;100363.77;1770079;79;21202;-74
2020/12/30 03:04:17;;;;;;;22.85;17.42;;;;;;;5.14;88.77;100366.38;1770078;80;21060;-74
2020/12/30 03:06:45;;;;;;;22.22;16.82;;;;;;;5.10;88.75;100363.88;1767228;79;21192;-73
2020/12/30 03:09:13;;;;;;;22.40;16.70;;;;;;;5.07;88.78;100367.80;1769066;79;21817;-74
2020/12/30 03:11:44;;;;;;;21.02;15.72;;;;;;;5.05;88.79;100365.88;1782223;79;21207;-74
2020/12/30 03:14:12;;;;;;;23.98;18.27;;;;;;;5.04;88.82;100368.25;1757320;81;21183;-74
2020/12/30 03:16:40;;;;;;;23.05;17.48;;;;;;;5.03;88.85;100361.84;1758983;80;21188;-75
2020/12/30 03:19:08;;;;;;;20.00;15.65;;;;;;;5.03;88.87;100359.19;1759614;80;21569;-74
2020/12/30 03:21:36;;;;;;;17.82;13.90;;;;;;;5.03;88.87;100354.70;1757448;80;21217;-73
2020/12/30 03:24:05;;;;;;;22.22;17.48;;;;;;;5.01;88.84;100354.13;1761386;80;21099;-73
2020/12/30 03:26:34;;;;;;;23.27;18.30;;;;;;;4.97;88.85;100349.50;1806032;78;21672;-73
2020/12/30 03:29:02;;;;;;;21.68;16.57;;;;;;;4.95;88.89;100352.37;1793982;79;21145;-73
2020/12/30 03:31:30;;;;;;;21.37;16.07;;;;;;;4.93;88.85;100343.33;1786793;78;21164;-73
2020/12/30 03:33:58;;;;;;;19.10;14.87;;;;;;;4.93;88.89;100339.36;1796401;79;22690;-73
2020/12/30 03:36:27;;;;;;;20.25;15.80;;;;;;;4.92;88.87;100331.66;1772029;79;21068;-73
2020/12/30 03:38:55;;;;;;;23.07;16.97;;;;;;;4.87;88.89;100329.70;1769042;79;21132;-73
2020/12/30 03:41:22;;;;;;;24.32;17.55;;;;;;;4.83;88.95;100332.48;1768415;79;21123;-73
2020/12/30 03:43:50;;;;;;;21.25;16.87;;;;;;;4.83;88.98;100329.03;1770322;81;21178;-73
2020/12/30 03:46:18;;;;;;;23.45;16.87;;;;;;;4.83;89.01;100331.16;1769756;79;22426;-73
2020/12/30 03:48:46;;;;;;;21.12;16.37;;;;;;;4.84;89.06;100335.44;1770013;81;21179;-73
2020/12/30 03:51:14;;;;;;;17.60;13.55;;;;;;;4.87;89.12;100351.36;1768491;79;21128;-73
2020/12/30 03:53:42;;;;;;;18.15;14.60;;;;;;;4.86;89.11;100349.23;1767156;80;21600;-74
2020/12/30 03:56:09;;;;;;;18.07;13.60;;;;;;;4.84;89.09;100355.28;1765771;80;21176;-73
2020/12/30 03:58:38;;;;;;;21.77;16.75;;;;;;;4.83;89.17;100354.97;1765525;79;21731;-72
2020/12/30 04:01:08;;;;;;;21.35;16.67;;;;;;;4.81;89.17;100351.76;1759157;79;21556;-74
2020/12/30 04:03:36;;;;;;;20.70;16.65;;;;;;;4.81;89.22;100352.28;1765819;81;21068;-73
2020/12/30 04:06:04;;;;;;;21.12;15.98;;;;;;;4.80;89.24;100350.13;1767366;81;21203;-73
2020/12/30 04:08:32;;;;;;;18.80;14.68;;;;;;;4.81;89.25;100346.98;1768909;79;21181;-74
2020/12/30 04:11:00;;;;;;;21.12;16.87;;;;;;;4.78;89.29;100352.20;1796262;78;21794;-74
2020/12/30 04:13:28;;;;;;;22.62;18.07;;;;;;;4.76;89.35;100359.55;1756837;80;21120;-74
2020/12/30 04:15:57;;;;;;;22.02;17.75;;;;;;;4.75;89.42;100357.94;1753711;80;21069;-73
2020/12/30 04:18:24;;;;;;;21.15;16.97;;;;;;;4.79;89.47;100364.39;1752953;80;21159;-73
2020/12/30 04:20:52;;;;;;;21.85;16.42;;;;;;;4.84;89.47;100367.19;1757792;80;21147;-73
2020/12/30 04:23:20;;;;;;;22.80;18.10;;;;;;;4.87;89.45;100364.59;1758752;80;21373;-74
2020/12/30 04:25:48;;;;;;;23.40;17.73;;;;;;;4.91;89.47;100368.42;1761886;80;21092;-74
2020/12/30 04:28:16;;;;;;;23.15;17.60;;;;;;;4.92;89.43;100367.39;1791310;78;21604;-73
2020/12/30 04:30:44;;;;;;;20.05;16.17;;;;;;;4.94;89.42;100374.59;1753413;80;21171;-74
2020/12/30 04:33:12;;;;;;;19.10;15.72;;;;;;;4.99;89.40;100377.36;1752872;80;21121;-73
2020/12/30 04:35:39;;;;;;;22.82;18.25;;;;;;;5.00;89.33;100379.48;1745295;80;21495;-73
2020/12/30 04:38:07;;;;;;;22.65;18.50;;;;;;;5.01;89.35;100374.51;1746086;80;21627;-74
2020/12/30 04:40:35;;;;;;;19.65;16.37;;;;;;;5.04;89.33;100368.25;1735279;81;21191;-74
2020/12/30 04:43:03;;;;;;;22.13;17.77;;;;;;;5.10;89.32;100371.81;1734823;81;21131;-73
2020/12/30 04:45:30;;;;;;;22.25;17.40;;;;;;;5.14;89.25;100379.62;1735940;81;21069;-73
2020/12/30 04:47:58;;;;;;;21.68;17.42;;;;;;;5.18;89.29;100378.94;1736613;81;21378;-74
2020/12/30 04:50:27;;;;;;;21.93;17.37;;;;;;;5.21;89.22;100380.84;1737525;81;21540;-73
2020/12/30 04:52:55;;;;;;;21.73;17.30;;;;;;;5.16;89.16;100378.86;1692265;82;21136;-72
2020/12/30 04:55:24;;;;;;;20.35;15.60;;;;;;;5.16;89.15;100384.95;1734601;81;21144;-73
2020/12/30 04:58:07;;;;;;;19.90;16.20;;;;;;;5.20;89.11;100377.89;1734902;81;21619;-73
2020/12/30 05:00:38;;;;;;;25.02;18.90;;;;;;;5.16;89.05;100375.69;1734848;81;22273;-73
2020/12/30 05:03:08;;;;;;;21.52;16.52;;;;;;;5.10;89.03;100365.19;1731349;81;21225;-74
2020/12/30 05:05:38;;;;;;;21.57;16.42;;;;;;;5.04;88.99;100362.15;1736738;81;21080;-74
2020/12/30 05:08:10;;;;;;;22.98;18.17;;;;;;;4.96;89.00;100371.71;1730115;81;21164;-73
2020/12/30 05:10:46;;;;;;;21.48;16.50;;;;;;;4.92;89.08;100370.83;1731355;81;21530;-74
2020/12/30 05:13:14;;;;;;;24.10;18.17;;;;;;;4.91;89.14;100371.07;1727539;81;21420;-73
2020/12/30 05:15:42;;;;;;;21.70;16.85;;;;;;;4.91;89.20;100371.88;1736767;81;21139;-75
2020/12/30 05:18:10;;;;;;;20.40;16.35;;;;;;;4.89;89.21;100369.16;1785611;78;21140;-73
2020/12/30 05:20:38;;;;;;;21.30;16.42;;;;;;;4.86;89.23;100361.14;1787473;78;21061;-74
2020/12/30 05:23:09;;;;;;;21.15;16.65;;;;;;;4.88;89.30;100356.44;1745460;80;21189;-74
2020/12/30 05:25:42;;;;;;;;;;;;;;;4.89;89.34;100369.16;1758695;80;22400;-73
2020/12/30 05:28:13;;;;;;;17.82;14.28;;;;;;;4.89;89.39;100363.34;1750130;80;20267;-73
2020/12/30 05:30:43;;;;;;;18.57;14.75;;;;;;;4.86;89.41;100361.14;1788902;78;21053;-74
2020/12/30 05:33:11;;;;;;;19.92;15.20;;;;;;;4.83;89.42;100354.97;1760394;80;21140;-75
2020/12/30 05:35:39;;;;;;;19.42;15.20;;;;;;;4.82;89.53;100356.53;1788690;78;21124;-74
2020/12/30 05:38:07;;;;;;;19.87;15.93;;;;;;;4.84;89.61;100359.25;1794300;78;21115;-73
2020/12/30 05:40:36;;;;;;;18.87;14.47;;;;;;;4.85;89.72;100364.02;1788425;78;21183;-73
2020/12/30 05:43:13;;;;;;;17.60;14.63;;;;;;;4.87;89.84;100361.45;1752041;81;21176;-75
2020/12/30 05:45:51;;;;;;;17.50;13.65;;;;;;;4.91;89.93;100367.11;1784454;78;21183;-74
2020/12/30 05:48:20;;;;;;;18.40;14.55;;;;;;;4.94;90.02;100371.43;1790050;78;21152;-74
2020/12/30 05:50:55;;;;;;;17.27;13.85;;;;;;;4.97;90.08;100377.29;1797976;78;21361;-73
2020/12/30 05:53:25;;;;;;;17.75;13.65;;;;;;;4.98;90.15;100372.31;1784498;78;21176;-74
2020/12/30 05:56:09;;;;;;;16.20;12.63;;;;;;;5.03;90.23;100381.69;1759673;80;21198;-75
2020/12/30 05:58:44;;;;;;;15.70;12.70;;;;;;;5.09;90.32;100383.45;1755889;80;21204;-75
2020/12/30 06:01:25;;;;;;;13.83;11.18;;;;;;;5.20;90.44;100388.48;1756146;80;21206;-74
2020/12/30 06:03:54;;;;;;;15.53;11.00;;;;;;;5.26;90.53;100388.91;1788474;78;22142;-74
2020/12/30 06:06:22;;;;;;;12.03;9.58;;;;;;;5.31;90.61;100390.38;1780085;78;21199;-74
2020/12/30 06:08:50;;;;;;;13.65;10.85;;;;;;;5.37;90.73;100390.28;1787302;78;21513;-74
2020/12/30 06:11:24;;;;;;;14.05;11.40;;;;;;;5.40;90.78;100391.16;1785935;78;21188;-74
2020/12/30 06:13:52;;;;;;;15.83;12.78;;;;;;;5.39;90.76;100392.69;1752788;80;21134;-74
2020/12/30 06:16:23;;;;;;;15.65;12.82;;;;;;;5.34;90.70;100396.02;1767182;81;21378;-74
2020/12/30 06:18:51;;;;;;;16.35;12.90;;;;;;;5.32;90.68;100394.62;1741373;81;21659;-73
2020/12/30 06:21:19;;;;;;;16.23;13.38;;;;;;;5.31;90.65;100398.32;1765988;79;21583;-74
2020/12/30 06:23:48;;;;;;;16.87;13.80;;;;;;;5.28;90.63;100390.83;1765259;79;21247;-74
2020/12/30 06:26:18;;;;;;;14.78;12.28;;;;;;;5.25;90.60;100400.02;1737143;81;21508;-74
2020/12/30 06:28:48;;;;;;;13.83;11.85;;;;;;;5.25;90.60;100393.92;1766965;79;22353;-74
2020/12/30 06:31:16;;;;;;;13.40;10.38;;;;;;;5.25;90.60;100392.08;1764125;81;21093;-74
2020/12/30 06:33:44;;;;;;;14.07;11.40;;;;;;;5.23;90.59;100391.52;1765200;79;21100;-74
2020/12/30 06:36:12;;;;;;;13.88;11.28;;;;;;;5.21;90.62;100396.73;1766196;79;21179;-73
2020/12/30 06:38:41;;;;;;;15.00;12.00;;;;;;;5.19;90.64;100391.65;1761271;79;21593;-73
2020/12/30 06:41:09;;;;;;;14.35;12.03;;;;;;;5.20;90.66;100398.58;1766794;79;21824;-75
2020/12/30 06:43:48;;;;;;;13.95;11.68;;;;;;;5.20;90.67;100393.78;1765420;79;21230;-74
2020/12/30 06:46:32;;;;;;;14.55;11.80;;;;;;;5.21;90.68;100381.65;1763280;79;21108;-74
2020/12/30 06:49:05;;;;;;;12.58;9.75;;;;;;;5.17;90.70;100378.65;1765730;79;21199;-74
2020/12/30 06:51:40;;;;;;;15.95;13.00;;;;;;;5.18;90.70;100377.61;1766542;81;21160;-73
2020/12/30 06:54:08;;;;;;;15.20;12.05;;;;;;;5.15;90.70;100373.28;1765569;79;22312;-74
2020/12/30 06:56:41;;;;;;;13.25;10.72;;;;;;;5.11;90.76;100373.45;1767194;79;21661;-74
2020/12/30 06:59:11;;;;;;;14.47;11.57;;;;;;;5.10;90.79;100373.14;1768902;79;21175;-73
2020/12/30 07:02:06;;;;;;;14.03;10.28;;;;;;;5.09;90.82;100372.33;1763130;79;21144;-73
2020/12/30 07:04:35;;;;;;;17.80;13.28;;;;;;;5.08;90.85;100369.92;1764037;79;21116;-75
2020/12/30 07:07:21;;;;;;;15.35;11.97;;;;;;;5.05;90.93;100368.53;1765657;79;21163;-74
2020/12/30 07:09:48;;;;;;;14.43;11.50;;;;;;;5.07;90.98;100377.59;1756435;79;21230;-74
2020/12/30 07:12:17;;;;;;;14.05;11.03;;;;;;;5.08;91.03;100393.75;1766439;79;21176;-74
2020/12/30 07:14:44;;;;;;;15.40;11.45;;;;;;;5.07;91.05;100383.68;1766114;79;21205;-74
2020/12/30 07:17:12;;;;;;;15.78;11.85;;;;;;;5.09;91.09;100387.41;1761731;80;21892;-74
2020/12/30 07:19:42;;;;;;;14.00;10.28;;;;;;;5.08;91.11;100378.67;1785845;80;21191;-73
2020/12/30 07:22:15;;;;;;;13.22;10.48;;;;;;;5.10;91.12;100385.88;1765403;79;21192;-73
2020/12/30 07:24:53;;;;;;;13.72;11.28;;;;;;;5.08;91.14;100379.99;1763434;79;21575;-74
2020/12/30 07:27:27;;;;;;;14.73;10.32;;;;;;;5.06;91.17;100380.72;1764486;80;21222;-74
2020/12/30 07:29:56;;;;;;;15.65;10.75;;;;;;;5.09;91.24;100380.80;1764205;79;21120;-74
2020/12/30 07:32:23;;;;;;;14.07;10.72;;;;;;;5.11;91.26;100380.06;1767358;79;21199;-73
2020/12/30 07:34:52;;;;;;;14.58;10.68;;;;;;;5.14;91.29;100387.56;1764924;79;21394;-73
2020/12/30 07:37:20;;;;;;;14.15;10.72;;;;;;;5.18;91.30;100383.42;1764662;79;21166;-74
2020/12/30 07:39:49;;;;;;;13.98;11.18;;;;;;;5.17;91.25;100381.82;1764226;80;21584;-72
2020/12/30 07:42:24;;;;;;;14.23;11.40;;;;;;;5.16;91.23;100380.19;1764029;79;21605;-73
2020/12/30 07:44:57;;;;;;;15.32;11.55;;;;;;;5.20;91.26;100380.05;1764746;79;21997;-74
2020/12/30 07:47:27;;;;;;;14.45;11.20;;;;;;;5.22;91.25;100383.78;1769791;79;21184;-74
2020/12/30 07:50:03;;;;;;;14.40;11.75;;;;;;;5.21;91.23;100385.63;1766412;79;21186;-73
2020/12/30 07:52:30;;;;;;;13.53;10.65;;;;;;;5.21;91.23;100384.30;1764949;81;21179;-73
2020/12/30 07:54:58;;;;;;;11.53;9.53;;;;;;;5.23;91.22;100383.57;1763437;79;21175;-74
2020/12/30 07:57:26;;;;;;;13.15;10.20;;;;;;;5.23;91.22;100379.59;1750529;80;21395;-74
2020/12/30 07:59:55;;;;;;;12.90;10.18;;;;;;;5.23;91.25;100375.63;1742040;80;21204;-74
2020/12/30 08:02:24;;;;;;;11.90;9.93;;;;;;;5.23;91.27;100369.01;1763861;80;21140;-74
2020/12/30 08:05:02;;;;;;;13.58;10.55;;;;;;;5.25;91.29;100366.92;1726954;81;21242;-74
2020/12/30 08:07:31;;;;;;;9.95;7.55;;;;;;;5.29;91.27;100373.37;1784558;78;21207;-73
2020/12/30 08:10:00;;;;;;;13.90;10.72;;;;;;;5.33;91.30;100364.45;1781457;78;21262;-74
2020/12/30 08:12:27;;;;;;;15.78;11.95;;;;;;;5.34;91.27;100364.77;1788157;78;21596;-74
2020/12/30 08:14:55;;;;;;;14.60;11.48;;;;;;;5.38;91.31;100362.75;1753950;80;21666;-74
2020/12/30 08:17:23;;;;;;;13.43;10.80;;;;;;;5.43;91.25;100366.55;1764754;79;21567;-73
2020/12/30 08:19:52;;;;;;;15.25;10.82;;;;;;;5.47;91.23;100369.05;1761211;79;21227;-74
2020/12/30 08:22:25;;;;;;;12.95;10.40;;;;;;;5.48;91.23;100365.36;1767235;79;22011;-74
2020/12/30 08:24:58;;;;;;;14.85;11.40;;;;;;;5.48;91.23;100371.98;1761229;79;21711;-74
2020/12/30 08:27:28;;;;;;;13.50;10.80;;;;;;;5.49;91.25;100380.22;1762765;79;21207;-74
2020/12/30 08:29:58;;;;;;;14.05;10.35;;;;;;;5.53;91.26;100389.34;1765910;79;21208;-74
2020/12/30 08:32:38;;;;;;;15.25;11.60;;;;;;;5.56;91.45;100384.39;1763753;81;21631;-74
2020/12/30 08:35:18;;;;;;;14.15;11.30;;;;;;;5.59;91.23;100372.52;1765219;81;21897;-74
2020/12/30 08:38:02;;;;;;;12.60;9.85;;;;;;;5.61;91.21;100373.10;1764920;79;21280;-74
2020/12/30 08:40:31;;;;;;;;;;;;;;;5.62;91.20;100370.20;1771854;79;21224;-75
2020/12/30 08:43:21;;;;;;;12.68;10.03;;;;;;;5.63;91.13;100363.89;1765374;79;20217;-74
2020/12/30 08:45:54;;;;;;;16.80;12.30;;;;;;;5.64;91.15;100372.65;1764492;80;21097;-74
2020/12/30 08:48:22;;;;;;;14.68;11.18;;;;;;;5.68;91.14;100376.45;1763831;79;21819;-74
2020/12/30 08:50:50;;;;;;;14.68;11.30;;;;;;;5.72;91.12;100368.32;1765747;79;21198;-74
2020/12/30 08:53:37;;;;;;;15.38;10.38;;;;;;;5.75;91.09;100365.22;1766511;79;21163;-73
2020/12/30 08:56:06;;;;;;;13.78;10.80;;;;;;;5.76;91.05;100366.84;1766468;80;21183;-73
2020/12/30 08:58:57;;;;;;;15.77;11.87;;;;;;;5.86;91.06;100367.08;1804350;77;23384;-73
2020/12/30 09:01:27;;;;;;;16.20;11.85;;;;;;;5.83;91.06;100365.41;1774219;80;21120;-74
2020/12/30 09:04:11;;;;;;;13.43;9.75;;;;;;;5.92;91.13;100370.63;1778990;78;21249;-73
2020/12/30 09:06:39;;;;;;;14.20;10.30;;;;;;;6.00;91.14;100368.20;1759549;78;21187;-74
2020/12/30 09:09:14;;;;;;;11.33;8.50;;;;;;;6.08;91.17;100364.66;1784987;78;21134;-73
2020/12/30 09:11:49;;;;;;;11.80;8.63;;;;;;;6.17;91.22;100361.16;1778622;78;21266;-73
2020/12/30 09:14:22;;;;;;;14.03;10.18;;;;;;;6.29;91.30;100363.80;1779451;79;21187;-74
2020/12/30 09:16:57;;;;;;;12.43;9.68;;;;;;;6.40;91.36;100360.31;1781994;78;21359;-73
2020/12/30 09:19:25;;;;;;;14.13;9.13;;;;;;;6.51;91.33;100358.66;1794096;78;21172;-74
2020/12/30 09:22:07;;;;;;;12.33;8.70;;;;;;;6.60;91.30;100361.77;1792701;78;21204;-74
2020/12/30 09:24:36;;;;;;;12.37;8.60;;;;;;;6.70;91.27;100358.78;1772176;79;22247;-73
2020/12/30 09:27:20;;;;;;;13.00;9.85;;;;;;;6.79;91.16;100361.36;1798988;78;21191;-75
2020/12/30 09:30:10;;;;;;;13.25;8.90;;;;;;;6.83;91.01;100354.25;1781677;78;22266;-74
2020/12/30 09:32:39;;;;;;;12.98;9.05;;;;;;;6.85;90.91;100354.83;1793610;78;21200;-75
2020/12/30 09:35:11;;;;;;;13.70;8.85;;;;;;;6.88;90.77;100341.05;1787132;78;21650;-74
2020/12/30 09:37:40;;;;;;;13.05;8.80;;;;;;;6.91;90.70;100341.91;1782006;79;21207;-75
2020/12/30 09:40:12;;;;;;;13.58;9.28;;;;;;;6.96;90.61;100342.81;1791541;78;21212;-73
2020/12/30 09:42:41;;;;;;;13.35;9.90;;;;;;;7.02;90.53;100339.73;1780747;79;21418;-74
2020/12/30 09:45:12;;;;;;;12.45;8.73;;;;;;;7.06;90.42;100334.22;1791595;78;21140;-73
2020/12/30 09:47:40;;;;;;;15.03;9.30;;;;;;;7.10;90.27;100325.25;1781425;78;21445;-74
2020/12/30 09:50:14;;;;;;;12.85;9.55;;;;;;;7.12;90.12;100325.30;1786920;78;21154;-74
2020/12/30 09:52:44;;;;;;;13.03;8.70;;;;;;;7.16;89.99;100325.63;1789571;78;21152;-74
2020/12/30 09:55:12;;;;;;;12.43;8.88;;;;;;;7.18;89.81;100324.87;1773582;78;21393;-72
2020/12/30 09:57:41;;;;;;;14.90;9.58;;;;;;;7.16;89.68;100325.10;1779815;79;21721;-73
2020/12/30 10:00:10;;;;;;;11.12;7.35;;;;;;;7.17;89.54;100320.09;1763324;79;21180;-73
2020/12/30 10:02:37;;;;;;;11.22;8.20;;;;;;;7.17;89.35;100316.61;1770485;79;21163;-73
2020/12/30 10:05:05;;;;;;;12.30;9.00;;;;;;;7.12;89.22;100313.36;1764706;79;21120;-73
2020/12/30 10:07:35;;;;;;;13.65;9.35;;;;;;;7.13;89.18;100319.47;1761702;79;21402;-73
2020/12/30 10:10:03;;;;;;;12.95;9.00;;;;;;;7.14;89.13;100308.62;1778470;79;21183;-73
2020/12/30 10:12:30;;;;;;;12.18;8.78;;;;;;;7.20;89.03;100309.48;1769344;79;21168;-72
2020/12/30 10:14:58;;;;;;;12.85;9.18;;;;;;;7.22;88.91;100314.85;1764473;80;21158;-73
2020/12/30 10:17:26;;;;;;;13.53;9.90;;;;;;;7.28;88.81;100315.75;1769441;81;21663;-75
2020/12/30 10:19:53;;;;;;;11.88;8.60;;;;;;;7.26;88.61;100304.02;1764834;79;22702;-73
2020/12/30 10:22:21;;;;;;;12.53;8.53;;;;;;;7.27;88.50;100293.70;1760117;81;21214;-74
2020/12/30 10:24:49;;;;;;;13.08;8.90;;;;;;;7.28;88.35;100291.31;1752643;79;21178;-74
2020/12/30 10:27:16;;;;;;;13.35;9.08;;;;;;;7.29;88.28;100288.92;1760533;79;21182;-74
2020/12/30 10:29:44;;;;;;;14.63;9.65;;;;;;;7.32;88.13;100290.83;1746456;79;21159;-73
2020/12/30 10:32:12;;;;;;;12.05;8.83;;;;;;;7.34;88.00;100296.69;1766537;79;21349;-73
2020/12/30 10:34:41;;;;;;;11.70;8.03;;;;;;;7.37;87.90;100295.71;1766779;81;21175;-72
2020/12/30 10:37:09;;;;;;;11.12;8.78;;;;;;;7.41;87.65;100294.70;1759420;79;21281;-72
2020/12/30 10:39:38;;;;;;;12.43;8.98;;;;;;;7.41;87.49;100287.53;1772233;79;21186;-72
2020/12/30 10:42:07;;;;;;;12.75;8.98;;;;;;;7.43;87.33;100287.27;1774237;79;21144;-73
2020/12/30 10:44:36;;;;;;;10.55;7.70;;;;;;;7.45;87.17;100283.86;1763953;79;21638;-73
2020/12/30 10:47:05;;;;;;;11.22;7.70;;;;;;;7.48;86.98;100283.38;1765897;80;21210;-72
2020/12/30 10:49:33;;;;;;;11.80;8.33;;;;;;;7.50;86.78;100274.62;1767804;79;21219;-74
2020/12/30 10:52:01;;;;;;;10.85;8.38;;;;;;;7.52;86.62;100269.88;1762025;80;21119;-72
2020/12/30 10:54:29;;;;;;;11.20;7.80;;;;;;;7.48;86.45;100269.56;1782071;80;21200;-74
2020/12/30 10:56:58;;;;;;;10.88;7.87;;;;;;;7.46;86.28;100272.17;1745313;81;21752;-74
2020/12/30 10:59:26;;;;;;;12.78;8.58;;;;;;;7.46;86.17;100270.84;1748914;80;21655;-73
2020/12/30 11:01:54;;;;;;;11.15;8.25;;;;;;;7.47;86.05;100272.48;1783089;78;21559;-74
2020/12/30 11:04:21;;;;;;;12.10;8.78;;;;;;;7.48;85.98;100270.09;1763098;80;21175;-73
2020/12/30 11:06:50;;;;;;;12.95;8.75;;;;;;;7.51;85.90;100268.28;1762611;80;21166;-73
2020/12/30 11:09:18;;;;;;;12.65;9.08;;;;;;;7.52;85.75;100268.02;1788467;80;21356;-73
2020/12/30 11:11:49;;;;;;;11.12;7.53;;;;;;;7.51;85.63;100262.44;1781505;78;21207;-73
2020/12/30 11:14:18;;;;;;;10.65;7.28;;;;;;;7.54;85.59;100261.15;1773171;80;21202;-73
2020/12/30 11:16:49;;;;;;;9.85;7.03;;;;;;;7.55;85.47;100270.72;1767953;78;21162;-74
2020/12/30 11:19:17;;;;;;;9.95;7.20;;;;;;;7.51;85.31;100263.77;1752651;81;21148;-73
2020/12/30 11:21:52;;;;;;;10.08;6.97;;;;;;;7.49;85.25;100251.76;1781233;78;21208;-72
2020/12/30 11:24:20;;;;;;;9.48;6.83;;;;;;;7.49;85.21;100256.55;1757773;80;21152;-73
2020/12/30 11:26:49;;;;;;;11.08;7.12;;;;;;;7.50;85.17;100244.89;1756863;80;21150;-73
2020/12/30 11:29:16;;;;;;;11.30;7.80;;;;;;;7.54;85.09;100241.22;1768587;79;21686;-73
2020/12/30 11:31:45;;;;;;;12.00;8.10;;;;;;;7.53;85.03;100239.59;1721562;82;21171;-73